Weather reports worldwide

Advertisment
Bala, United Kingdom (3409): temperature & dewpoint: 03.07.2020 02:00:00 - 09.07.2020 02:00:00 (BST)Bala, United Kingdom (3409): temperature -20cm & temperature -100cm: 03.07.2020 02:00:00 - 09.07.2020 02:00:00 (BST)Bala, United Kingdom (3409): wind speed & gusts: 03.07.2020 02:00:00 - 09.07.2020 02:00:00 (BST)Bala, United Kingdom (3409): wind direction: 03.07.2020 02:00:00 - 09.07.2020 02:00:00 (BST)Bala, United Kingdom (3409): reduced air pressure: 03.07.2020 02:00:00 - 09.07.2020 02:00:00 (BST)Bala, United Kingdom (3409): sunshine duration: 03.07.2020 02:00:00 - 09.07.2020 02:00:00 (BST)Bala, United Kingdom (3409): precipitation: 03.07.2020 02:00:00 - 09.07.2020 02:00:00 (BST)
Date & Time tt [°C] td [°C] tt -20cm [°C] tt -100cm [°C] ff [km/h] ff [kn] fx [km/h] fx [kn] dd ppp [hPa] sd [min] rr [mm]
09.07.2020 02:00:00 14,2 13,9 - - 15 8 - - SW 1009,3 0 1,2
09.07.2020 01:00:00 14,5 14,1 - - 15 8 - - SW 1009,8 - 0,2
09.07.2020 00:00:00 14,4 14,2 - - 9 5 - - SW 1010,4 0 1,0
08.07.2020 23:00:00 13,8 13,8 - - 4 2 - - S 1010,9 0 3,0
08.07.2020 22:00:00 13,4 13,3 - - 4 2 - - ENE 1011,7 0 1,6
08.07.2020 21:00:00 13,4 13,3 - - 4 2 - - WSW 1012,0 0 1,8
08.07.2020 20:00:00 13,6 13,4 - - 4 2 - - WSW 1012,5 0 0,8
08.07.2020 19:00:00 13,8 13,3 - - 8 4 - - SW 1013,1 0 0,6
08.07.2020 18:00:00 14,3 13,6 - - 11 6 - - SW 1013,6 0 0,6
08.07.2020 17:00:00 14,1 13,3 - - 9 5 - - WSW 1013,9 0 1,4
08.07.2020 16:00:00 15,3 13,7 - - 15 8 - - SW 1014,1 0 0,6
08.07.2020 15:00:00 16,3 13,8 - - 4 2 - - SSE 1014,3 0 0,0
08.07.2020 14:00:00 17,1 14,7 - - 8 4 - - E 1014,2 0 0,0
08.07.2020 13:00:00 16,6 14,5 - - 2 1 - - NE 1014,2 0 0,0
08.07.2020 12:00:00 15,8 13,8 - - 5 3 - - E 1014,2 0 0,0
08.07.2020 11:00:00 14,8 14,0 - - 8 4 - - E 1014,2 0 0,0
08.07.2020 10:00:00 14,6 13,6 15,7 14,9 5 3 - - E 1014,0 0 0,0
08.07.2020 09:00:00 14,3 13,7 - - 2 1 - - SSW 1013,6 0 0,0
08.07.2020 08:00:00 14,0 13,7 - - 4 2 - - W 1013,4 0 0,4
08.07.2020 07:00:00 13,8 13,5 - - 8 4 - - WSW 1013,0 0 0,0
08.07.2020 06:00:00 13,7 13,5 - - 8 4 - - W 1012,6 0 0,0
08.07.2020 05:00:00 13,8 13,7 - - 5 3 - - WSW 1012,4 0 0,2
08.07.2020 04:00:00 13,9 13,8 - - 5 3 - - WSW 1012,4 0 0,0
08.07.2020 03:00:00 14,1 13,8 - - 13 7 - - WSW 1012,6 0 0,2
08.07.2020 02:00:00 14,0 13,9 - - 13 7 - - WSW 1013,0 0 0,0
08.07.2020 01:00:00 13,9 13,8 - - 13 7 - - WSW 1013,4 - 0,4
08.07.2020 00:00:00 13,9 13,8 - - 13 7 - - WSW 1013,3 0 0,0
07.07.2020 23:00:00 13,7 13,5 - - 11 6 - - WSW 1013,5 0 0,2
07.07.2020 22:00:00 13,7 13,2 - - 15 8 - - WSW 1013,4 0 0,4
07.07.2020 21:00:00 13,7 13,5 - - 8 4 - - WSW 1013,8 0 0,8
07.07.2020 20:00:00 13,7 13,3 - - 11 6 - - WSW 1014,3 0 1,0
07.07.2020 19:00:00 13,6 12,9 - - 18 10 - - SW 1014,5 0 0,6
07.07.2020 18:00:00 13,1 12,5 - - 13 7 - - WSW 1015,2 0 0,0
07.07.2020 17:00:00 12,3 11,7 - - 11 6 - - SW 1016,4 0 0,4
07.07.2020 16:00:00 11,7 11,1 - - 15 8 - - SW 1017,5 0 0,4
07.07.2020 15:00:00 11,4 10,5 - - 16 9 - - WSW 1017,7 0 0,6
07.07.2020 14:00:00 11,4 10,1 - - 24 13 - - SW 1018,6 0 0,4
07.07.2020 13:00:00 11,5 10,6 - - 15 8 - - SW 1018,7 0 0,6
07.07.2020 12:00:00 11,4 10,0 - - 15 8 - - WSW 1019,4 0 0,0
07.07.2020 11:00:00 11,6 9,8 - - 16 9 - - SW 1019,7 0 0,0
07.07.2020 10:00:00 11,8 10,2 15,7 14,9 9 5 - - W 1019,8 0 1,0
07.07.2020 09:00:00 12,3 10,9 - - 2 1 - - NNE 1019,8 0 0,0
07.07.2020 08:00:00 11,3 11,1 - - 2 1 - - ENE 1020,2 0 0,0
07.07.2020 07:00:00 10,4 10,4 - - 0 0 - - N 1020,5 0 0,0
07.07.2020 06:00:00 9,7 9,6 - - 0 0 - - N 1020,8 0 0,0
07.07.2020 05:00:00 9,9 9,8 - - 2 1 - - E 1021,3 0 0,0
07.07.2020 04:00:00 10,1 9,8 - - 4 2 - - ENE 1021,4 0 0,0
07.07.2020 03:00:00 10,8 10,4 - - 2 1 - - SW 1021,9 0 0,0
07.07.2020 02:00:00 10,9 10,3 - - 2 1 - - SW 1022,5 0 0,0
07.07.2020 01:00:00 11,3 10,1 - - 4 2 - - S 1022,8 - 0,2
07.07.2020 00:00:00 11,6 9,8 - - 4 2 - - WNW 1022,9 0 0,0
06.07.2020 23:00:00 11,7 9,5 - - 4 2 - - SW 1023,4 0 0,0
06.07.2020 22:00:00 12,8 9,6 - - 11 6 - - WSW 1023,7 0 0,0
06.07.2020 21:00:00 13,2 9,8 - - 16 9 - - WSW 1023,4 0 0,0
06.07.2020 20:00:00 13,8 10,1 - - 13 7 - - WSW 1023,5 0 0,0
06.07.2020 19:00:00 14,7 9,0 - - 11 6 - - W 1023,2 0 0,0
06.07.2020 18:00:00 14,9 8,6 - - 11 6 - - W 1023,3 6 0,0
06.07.2020 17:00:00 15,2 7,5 - - 9 5 - - W 1023,2 6 0,0
06.07.2020 16:00:00 15,3 7,4 - - 9 5 - - WNW 1023,0 6 0,0
06.07.2020 15:00:00 15,9 8,0 - - 8 4 - - W 1022,3 36 0,0
06.07.2020 14:00:00 15,0 6,3 - - 8 4 - - NW 1022,2 18 0,0
06.07.2020 13:00:00 14,4 6,8 - - 15 8 - - NW 1021,8 18 0,0
06.07.2020 12:00:00 13,9 9,9 - - 13 7 - - WNW 1020,8 6 0,0
06.07.2020 11:00:00 12,6 10,2 - - 11 6 - - W 1020,0 6 0,2
06.07.2020 10:00:00 11,7 9,6 15,7 15,0 9 5 - - W 1019,3 0 0,0
06.07.2020 09:00:00 11,8 9,3 - - 13 7 - - W 1018,4 0 0,0
06.07.2020 08:00:00 11,5 9,1 - - 21 11 - - WSW 1017,4 0 0,0
06.07.2020 07:00:00 11,3 8,3 - - 16 9 - - WSW 1016,6 0 0,2
06.07.2020 06:00:00 11,2 8,3 - - 21 11 - - W 1015,8 0 0,0
06.07.2020 05:00:00 11,3 7,9 - - 22 12 - - W 1015,3 0 0,0
06.07.2020 04:00:00 11,4 8,2 - - 22 12 - - W 1014,8 0 0,0
06.07.2020 03:00:00 11,7 8,0 - - 18 10 - - W 1014,9 0 0,0
06.07.2020 02:00:00 12,0 8,0 - - 22 12 46 25 W 1014,3 0 0,0
06.07.2020 01:00:00 12,0 8,3 - - 22 12 - - W 1013,8 - 0,0
06.07.2020 00:00:00 12,1 8,4 - - 24 13 54 29 WSW 1012,9 0 0,0
05.07.2020 23:00:00 11,9 9,3 - - 18 10 - - W 1012,2 0 0,0
05.07.2020 22:00:00 11,9 9,9 - - 22 12 55 30 WSW 1011,6 0 1,6
05.07.2020 21:00:00 12,5 9,3 - - 26 14 55 30 WSW 1010,5 0 0,4
05.07.2020 20:00:00 13,2 9,2 - - 34 18 61 33 WSW 1009,4 0 0,6
05.07.2020 19:00:00 14,1 8,8 - - 31 17 57 31 WSW 1009,0 6 0,0
05.07.2020 18:00:00 13,8 9,7 - - 34 18 54 29 WSW 1009,1 12 0,0
05.07.2020 17:00:00 14,6 9,1 - - 35 19 59 32 WSW 1008,9 48 0,0
05.07.2020 16:00:00 13,7 10,4 - - 35 19 61 33 WSW 1008,9 24 0,0
05.07.2020 15:00:00 14,2 9,9 - - 39 21 61 33 WSW 1008,6 18 0,0
05.07.2020 14:00:00 14,2 9,0 - - 37 20 63 34 WSW 1008,4 36 0,0
05.07.2020 13:00:00 13,8 9,1 - - 31 17 55 30 WSW 1008,8 18 0,0
05.07.2020 12:00:00 14,3 9,5 - - 26 14 54 29 WSW 1008,6 18 0,0
05.07.2020 11:00:00 12,9 8,1 - - 22 12 - - WSW 1008,8 0 0,0
05.07.2020 10:00:00 12,8 8,0 16,0 15,0 22 12 48 26 WSW 1008,9 0 0,0
05.07.2020 09:00:00 12,4 7,6 - - 21 11 - - W 1008,6 0 0,0
05.07.2020 08:00:00 12,4 8,4 - - 21 11 48 26 W 1007,4 0 0,0
05.07.2020 07:00:00 12,8 9,8 - - 21 11 52 28 W 1006,4 0 0,0
05.07.2020 06:00:00 13,7 11,2 - - 28 15 59 32 WSW 1004,8 0 0,0
05.07.2020 05:00:00 14,3 11,8 - - 28 15 57 31 WSW 1003,8 0 0,0
05.07.2020 04:00:00 14,6 13,2 - - 34 18 68 37 WSW 1002,8 0 0,2
05.07.2020 03:00:00 15,0 14,2 - - 41 22 68 37 WSW 1001,7 0 0,2
05.07.2020 02:00:00 15,0 14,3 - - 42 23 76 41 WSW 1001,5 0 0,2
05.07.2020 01:00:00 15,0 14,3 - - 46 25 74 40 WSW 1001,5 - 0,2
05.07.2020 00:00:00 15,2 14,4 - - 39 21 72 39 SW 1002,1 0 0,6
04.07.2020 23:00:00 14,8 14,4 - - 39 21 59 32 SW 1003,2 0 0,2
04.07.2020 22:00:00 14,3 14,0 - - 22 12 - - SW 1004,4 0 0,2
04.07.2020 21:00:00 14,3 13,8 - - 11 6 - - SSW 1005,6 0 0,4
04.07.2020 20:00:00 14,4 13,8 - - 22 12 - - SW 1006,2 0 0,2
04.07.2020 19:00:00 14,6 14,0 - - 24 13 - - SW 1006,6 0 0,0
04.07.2020 18:00:00 14,6 14,1 - - 26 14 46 25 SW 1006,9 0 0,0
04.07.2020 17:00:00 14,6 14,2 - - 29 16 - - SW 1007,0 0 0,0
04.07.2020 16:00:00 14,5 14,2 - - 24 13 - - WSW 1007,6 0 0,4
04.07.2020 15:00:00 14,8 14,1 - - 31 17 48 26 SW 1007,1 0 0,4
04.07.2020 14:00:00 14,8 13,9 - - 28 15 50 27 SW 1007,3 6 0,0
04.07.2020 13:00:00 15,3 14,2 - - 35 19 52 28 SW 1006,8 54 0,0
04.07.2020 12:00:00 15,1 14,0 - - 31 17 - - WSW 1007,0 60 0,0
04.07.2020 11:00:00 15,2 14,2 - - 29 16 - - WSW 1006,5 60 0,2
04.07.2020 10:00:00 14,7 13,9 15,9 15,0 28 15 - - WSW 1006,9 54 0,2
04.07.2020 09:00:00 14,7 14,0 - - 28 15 48 26 WSW 1006,7 18 0,0
04.07.2020 08:00:00 14,1 13,7 - - 28 15 46 25 WSW 1006,6 0 0,0
04.07.2020 07:00:00 13,9 13,7 - - 28 15 - - WSW 1006,4 0 0,2
04.07.2020 06:00:00 14,2 13,7 - - 28 15 - - SW 1006,4 0 0,4
04.07.2020 05:00:00 14,3 13,8 - - 26 14 - - SW 1006,4 0 0,6
04.07.2020 04:00:00 14,4 13,9 - - 29 16 50 27 SW 1006,0 0 0,4
04.07.2020 03:00:00 14,7 14,1 - - 34 18 50 27 SW 1006,2 0 0,8
04.07.2020 02:00:00 14,8 14,3 - - 29 16 - - SW 1006,2 0 1,2
04.07.2020 01:00:00 14,8 14,5 - - 24 13 74 40 WSW 1006,9 - 1,4
04.07.2020 00:00:00 14,8 14,5 - - 18 10 - - WSW 1007,4 0 1,8
03.07.2020 23:00:00 14,7 14,4 - - 21 11 - - SW 1007,9 0 4,2
03.07.2020 22:00:00 14,6 14,4 - - 22 12 - - WSW 1008,3 0 4,4
03.07.2020 21:00:00 14,5 14,1 - - 28 15 - - SW 1008,0 0 1,4
03.07.2020 20:00:00 14,5 14,1 - - 26 14 - - WSW 1008,3 0 3,6
03.07.2020 19:00:00 14,3 13,9 - - 26 14 - - WSW 1008,7 0 2,4
03.07.2020 18:00:00 14,3 13,8 - - 28 15 - - WSW 1009,2 0 2,0
03.07.2020 17:00:00 14,3 13,6 - - 29 16 48 26 SW 1009,5 0 1,6
03.07.2020 16:00:00 14,0 13,3 - - 26 14 48 26 SW 1010,4 0 1,8
03.07.2020 15:00:00 14,1 13,3 - - 26 14 48 26 WSW 1010,7 0 2,0
03.07.2020 14:00:00 13,8 13,1 - - 29 16 48 26 SW 1010,7 0 1,0
03.07.2020 13:00:00 13,8 13,0 - - 31 17 52 28 SW 1011,3 0 1,0
03.07.2020 12:00:00 13,7 12,8 - - 35 19 57 31 SW 1011,1 0 0,8
03.07.2020 11:00:00 13,2 12,1 - - 31 17 61 33 WSW 1011,2 0 1,6
03.07.2020 10:00:00 12,5 11,6 16,2 15,0 35 19 50 27 SW 1012,2 0 0,2
03.07.2020 09:00:00 12,3 11,7 - - 37 20 55 30 WSW 1011,8 0 0,0
03.07.2020 08:00:00 12,6 11,0 - - 34 18 55 30 WSW 1011,8 0 0,0
03.07.2020 07:00:00 11,7 10,4 - - 22 12 52 28 WSW 1012,5 0 0,4
03.07.2020 06:00:00 12,2 9,8 - - 24 13 - - SW 1012,4 0 0,0
03.07.2020 05:00:00 12,2 9,7 - - 26 14 48 26 SW 1013,1 0 0,0
03.07.2020 04:00:00 13,1 11,1 - - 24 13 - - SW 1013,0 0 0,0
03.07.2020 03:00:00 13,0 10,6 - - 18 10 - - SW 1013,7 0 0,0
03.07.2020 02:00:00 12,9 10,7 - - 11 6 - - WSW 1013,9 0 0,0

tt = temperature
td = dewpoint
tt -20cm = temperature -20cm
tt -100cm = temperature -100cm
ff = wind speed
fx = gusts
dd = wind direction
ppp = reduced air pressure
sd = sunshine duration
rr = precipitation

Next stations